TimeCST,TemperatureF,Dew PointF,Humidity,Sea Level PressureIn,VisibilityMPH,Wind Direction,Wind SpeedMPH,Gust SpeedMPH,PrecipitationIn,Events,Conditions,WindDirDegrees,DateUTC
12:53 AM,39.9,30.0,68,30.07,10.0,South,10.4,-,N/A,,Clear,170,2013-01-08 06:53:00
1:53 AM,39.9,30.0,68,30.08,10.0,South,9.2,-,N/A,,Clear,180,2013-01-08 07:53:00
2:53 AM,39.0,28.9,67,30.08,10.0,South,8.1,-,N/A,,Clear,170,2013-01-08 08:53:00
3:53 AM,37.9,28.9,70,30.06,10.0,South,5.8,-,N/A,,Scattered Clouds,170,2013-01-08 09:53:00
4:53 AM,35.1,28.0,76,30.06,10.0,South,5.8,-,N/A,,Clear,170,2013-01-08 10:53:00
5:53 AM,37.9,28.9,70,30.06,10.0,South,6.9,-,N/A,,Partly Cloudy,180,2013-01-08 11:53:00
6:53 AM,34.0,27.0,75,30.08,10.0,SSE,5.8,-,N/A,,Clear,150,2013-01-08 12:53:00
7:53 AM,35.1,28.0,76,30.09,9.0,SE,6.9,-,N/A,,Clear,140,2013-01-08 13:53:00
8:53 AM,41.0,30.0,65,30.09,10.0,South,9.2,-,N/A,,Clear,170,2013-01-08 14:53:00
9:53 AM,46.0,32.0,58,30.08,10.0,South,11.5,-,0.00,,Clear,180,2013-01-08 15:53:00
10:53 AM,50.0,33.1,52,30.07,10.0,South,11.5,-,0.00,,Clear,180,2013-01-08 16:53:00
11:53 AM,54.0,34.0,47,30.04,10.0,SSW,9.2,-,0.00,,Clear,210,2013-01-08 17:53:00
12:53 PM,55.0,34.0,45,30.02,10.0,SW,11.5,-,N/A,,Clear,220,2013-01-08 18:53:00
1:53 PM,55.9,35.1,45,30.01,10.0,South,15.0,-,N/A,,Mostly Cloudy,190,2013-01-08 19:53:00
2:53 PM,55.0,37.9,53,30.02,9.0,South,11.5,-,N/A,,Overcast,170,2013-01-08 20:53:00
3:53 PM,52.0,39.9,63,30.06,6.0,South,12.7,-,0.00,,Haze,190,2013-01-08 21:53:00
4:22 PM,48.2,44.6,87,30.05,2.0,SSE,6.9,-,0.00,Rain,Light Rain,160,2013-01-08 22:22:00
4:42 PM,48.2,44.6,87,30.05,3.0,SSE,6.9,-,0.00,,Overcast,150,2013-01-08 22:42:00
4:53 PM,48.0,45.0,89,30.06,3.0,SSE,6.9,-,0.00,,Overcast,150,2013-01-08 22:53:00
5:07 PM,48.2,44.6,87,30.05,2.5,SE,6.9,-,0.00,Rain,Light Rain,140,2013-01-08 23:07:00
5:16 PM,48.2,44.6,87,30.05,4.0,SE,6.9,-,0.00,,Overcast,140,2013-01-08 23:16:00
5:31 PM,48.2,44.6,87,30.06,2.5,SSE,6.9,-,0.00,Rain,Light Rain,160,2013-01-08 23:31:00
5:39 PM,48.2,44.6,87,30.05,5.0,SSE,6.9,-,0.01,Rain,Light Rain,150,2013-01-08 23:39:00
5:53 PM,48.0,45.0,89,30.08,6.0,SSE,3.5,-,0.01,,Overcast,160,2013-01-08 23:53:00
6:53 PM,48.0,45.0,89,30.09,4.0,Calm,Calm,-,0.01,Rain,Light Rain,0,2013-01-09 00:53:00
7:53 PM,48.0,44.1,86,30.11,6.0,Calm,Calm,-,0.00,,Overcast,0,2013-01-09 01:53:00
8:53 PM,48.0,44.1,86,30.12,5.0,SSE,4.6,-,N/A,,Overcast,150,2013-01-09 02:53:00
9:53 PM,48.0,44.1,86,30.14,5.0,Calm,Calm,-,N/A,,Overcast,0,2013-01-09 03:53:00
11:25 PM,48.2,44.6,87,30.18,4.0,North,3.5,-,N/A,,Overcast,360,2013-01-09 05:25:00
11:53 PM,48.0,45.0,89,30.18,4.0,ENE,3.5,-,N/A,,Overcast,70,2013-01-09 05:53:00